createdAt,value
2023-11-21T00:02:41.219Z,56.5
2023-11-21T00:22:41.205Z,56.6
2023-11-21T00:42:41.261Z,56.6
2023-11-21T01:02:41.131Z,56.6
2023-11-21T01:22:41.141Z,56.7
2023-11-21T01:42:41.116Z,56.7
2023-11-21T02:02:41.056Z,56.7
2023-11-21T02:22:41.083Z,56.8
2023-11-21T02:42:41.050Z,56.8
2023-11-21T03:02:41.020Z,56.8
2023-11-21T03:22:40.972Z,57.0
2023-11-21T03:42:41.090Z,56.7
2023-11-21T04:02:40.935Z,56.5
2023-11-21T04:22:40.927Z,56.5
2023-11-21T04:42:40.959Z,56.5
2023-11-21T05:02:40.823Z,56.5
2023-11-21T05:22:40.806Z,56.5
2023-11-21T05:42:40.793Z,56.4
2023-11-21T06:02:40.843Z,56.3
2023-11-21T06:22:40.777Z,56.3
2023-11-21T06:42:40.755Z,56.3
2023-11-21T07:02:40.881Z,56.2
2023-11-21T07:22:40.757Z,56.2
2023-11-21T07:42:40.630Z,56.2
2023-11-21T08:02:40.647Z,56.1
2023-11-21T08:22:40.910Z,56.1
2023-11-21T08:42:40.935Z,56.1
2023-11-21T09:02:40.568Z,56.1
2023-11-21T09:22:40.842Z,56.1
2023-11-21T09:42:40.814Z,56.0
2023-11-21T10:02:40.506Z,56.1
2023-11-21T10:22:40.720Z,56.0
2023-11-21T10:42:40.757Z,56.0
2023-11-21T11:02:40.421Z,56.0
2023-11-21T11:22:40.809Z,56.0
2023-11-21T11:42:40.586Z,56.1
2023-11-21T12:02:40.647Z,56.0
2023-11-21T12:22:40.464Z,56.0
2023-11-21T12:42:40.513Z,56.1
2023-11-21T13:02:40.359Z,56.0
2023-11-21T13:22:40.236Z,55.9
2023-11-21T13:42:40.462Z,55.9
2023-11-21T14:02:40.304Z,55.9
2023-11-21T14:22:40.410Z,55.9
2023-11-21T14:42:40.390Z,55.9
2023-11-21T15:02:40.414Z,55.9
2023-11-21T15:22:40.322Z,55.9
2023-11-21T15:42:40.358Z,55.8
2023-11-21T16:02:40.033Z,55.8
2023-11-21T16:22:40.257Z,55.8
2023-11-21T16:42:40.016Z,55.8
2023-11-21T17:02:39.993Z,55.8
2023-11-21T17:22:40.075Z,55.7
2023-11-21T17:42:40.195Z,55.6
2023-11-21T18:02:39.845Z,55.6
2023-11-21T18:22:39.988Z,55.6
2023-11-21T18:42:40.104Z,55.6
2023-11-21T19:02:40.094Z,55.6
2023-11-21T19:22:40.061Z,55.6
2023-11-21T19:42:40.072Z,55.6
2023-11-21T20:02:39.839Z,55.6
2023-11-21T20:22:39.968Z,55.6
2023-11-21T20:42:40.044Z,55.6
2023-11-21T21:02:39.686Z,55.5
2023-11-21T21:22:40.035Z,55.6
2023-11-21T21:42:39.973Z,55.6
2023-11-21T22:02:39.986Z,55.6
2023-11-21T22:22:39.955Z,55.5
2023-11-21T22:42:39.923Z,55.5
2023-11-21T23:02:39.822Z,55.6
2023-11-21T23:22:39.778Z,55.6
2023-11-21T23:42:39.718Z,55.6
